Time;durP1;ratioP1;P1;durP2;ratioP2;P2;SDS_P1;SDS_P2;PMS_P1;PMS_P2;Temp;Humidity;BMP_temperature;BMP_pressure;BME280_temperature;BME280_humidity;BME280_pressure;Samples;Min_cycle;Max_cycle;Signal;HPM_P1;HPM_P2
2024/03/02 00:00:11;;;;;;;44.50;34.37;;;8.70;99.90;;;;;;5068469;28;20440;-57
2024/03/02 00:02:44;;;;;;;47.87;32.63;;;8.70;99.90;;;;;;5068993;28;20416;-53
2024/03/02 00:05:21;;;;;;;47.83;34.00;;;8.70;99.90;;;;;;5068911;28;20808;-58
2024/03/02 00:07:57;;;;;;;52.10;34.50;;;8.70;99.90;;;;;;5069393;28;20772;-57
2024/03/02 00:10:29;;;;;;;46.93;31.17;;;8.80;99.90;;;;;;5061096;28;20470;-56
2024/03/02 00:12:56;;;;;;;50.57;33.70;;;8.80;99.90;;;;;;5069031;28;20668;-57
2024/03/02 00:15:42;;;;;;;48.17;34.13;;;8.80;99.90;;;;;;5068799;28;20416;-54
2024/03/02 00:18:13;;;;;;;53.50;34.30;;;8.80;99.90;;;;;;5069750;28;20935;-58
2024/03/02 00:20:39;;;;;;;53.97;35.10;;;8.80;99.90;;;;;;5072640;28;20517;-58
2024/03/02 00:23:07;;;;;;;56.90;35.00;;;8.80;99.90;;;;;;5072172;28;20424;-58
2024/03/02 00:25:41;;;;;;;58.33;36.10;;;8.80;99.90;;;;;;5072673;28;20453;-58
2024/03/02 00:28:16;;;;;;;52.50;34.37;;;8.80;99.90;;;;;;5072483;28;20436;-58
2024/03/02 00:30:57;;;;;;;50.33;35.30;;;8.80;99.90;;;;;;5072786;28;20439;-57
2024/03/02 00:33:26;;;;;;;47.27;33.20;;;8.70;99.90;;;;;;5071967;28;20456;-56
2024/03/02 00:35:52;;;;;;;47.70;33.00;;;8.70;99.90;;;;;;5072051;28;20427;-55
2024/03/02 00:38:17;;;;;;;54.80;34.80;;;8.70;99.90;;;;;;5072069;28;20973;-56
2024/03/02 00:40:44;;;;;;;53.33;37.30;;;8.70;99.90;;;;;;5074427;28;20554;-57
2024/03/02 00:43:51;;;;;;;53.10;34.77;;;8.80;99.90;;;;;;5071933;28;20198;-57
2024/03/02 00:46:19;;;;;;;52.07;35.40;;;8.80;99.90;;;;;;5072162;28;20526;-57
2024/03/02 00:49:20;;;;;;;52.43;35.20;;;8.80;99.90;;;;;;5072514;28;20441;-58
2024/03/02 00:51:48;;;;;;;47.40;33.40;;;8.80;99.90;;;;;;5072908;28;20419;-58
2024/03/02 00:54:14;;;;;;;61.07;37.70;;;8.80;99.90;;;;;;5073639;28;20464;-57
2024/03/02 00:56:42;;;;;;;59.80;37.50;;;8.80;99.90;;;;;;5074451;28;20427;-56
2024/03/02 00:59:08;;;;;;;58.47;38.13;;;8.90;99.90;;;;;;5072989;28;20425;-58
2024/03/02 01:01:34;;;;;;;52.90;33.73;;;8.90;99.90;;;;;;5073468;28;20443;-56
2024/03/02 01:04:00;;;;;;;56.47;37.37;;;8.90;99.90;;;;;;5071632;28;20926;-59
2024/03/02 01:06:25;;;;;;;59.23;36.33;;;9.00;99.90;;;;;;5071758;28;20419;-53
2024/03/02 01:08:51;;;;;;;46.13;33.03;;;9.00;99.90;;;;;;5071051;28;20887;-58
2024/03/02 01:11:18;;;;;;;51.87;33.00;;;9.00;99.90;;;;;;5071280;28;20201;-58
2024/03/02 01:13:44;;;;;;;51.07;34.60;;;9.00;99.90;;;;;;5071525;28;20198;-58
2024/03/02 01:16:10;;;;;;;50.40;34.70;;;9.10;99.90;;;;;;5071400;28;20447;-57
2024/03/02 01:18:35;;;;;;;53.47;36.13;;;9.10;99.90;;;;;;5071415;28;20408;-57
2024/03/02 01:21:01;;;;;;;60.20;35.90;;;9.00;99.90;;;;;;5071395;28;20190;-56
2024/03/02 01:23:27;;;;;;;57.97;36.10;;;9.00;99.90;;;;;;5063151;28;20228;-58
2024/03/02 01:25:53;;;;;;;56.40;36.00;;;9.00;99.90;;;;;;5071009;28;20413;-58
2024/03/02 01:28:19;;;;;;;51.00;34.53;;;9.10;99.90;;;;;;5071470;28;20254;-56
2024/03/02 01:30:44;;;;;;;53.67;37.30;;;9.10;99.90;;;;;;5070596;28;20206;-59
2024/03/02 01:33:10;;;;;;;61.17;38.27;;;9.10;99.90;;;;;;5071339;28;20920;-59
2024/03/02 01:35:37;;;;;;;46.07;33.67;;;9.00;99.90;;;;;;5071662;28;20281;-60
2024/03/02 01:38:03;;;;;;;54.73;33.67;;;9.00;99.90;;;;;;5071699;28;20436;-57
2024/03/02 01:40:28;;;;;;;52.80;35.47;;;9.10;99.90;;;;;;5071278;28;21021;-59
2024/03/02 01:42:55;;;;;;;53.13;35.23;;;9.00;99.90;;;;;;5071105;28;20732;-59
2024/03/02 01:45:21;;;;;;;54.80;35.50;;;9.10;99.90;;;;;;5071006;28;20202;-57
2024/03/02 01:47:47;;;;;;;58.20;36.20;;;9.20;99.90;;;;;;5071559;28;20408;-59
2024/03/02 01:50:13;;;;;;;56.43;36.80;;;9.20;99.90;;;;;;5070910;28;20435;-57
2024/03/02 01:52:40;;;;;;;53.17;34.10;;;9.20;99.90;;;;;;5070885;28;20428;-57
2024/03/02 01:55:07;;;;;;;53.93;34.93;;;9.20;99.90;;;;;;5070432;28;20911;-57
2024/03/02 01:57:33;;;;;;;58.10;35.33;;;9.20;99.90;;;;;;5072752;28;20740;-55
2024/03/02 02:00:00;;;;;;;55.30;36.50;;;9.10;99.90;;;;;;5070783;28;20463;-57
2024/03/02 02:02:25;;;;;;;60.97;35.60;;;9.10;99.90;;;;;;5070769;28;20431;-57
2024/03/02 02:04:51;;;;;;;63.07;37.53;;;9.10;99.90;;;;;;5087873;22;20479;-64
2024/03/02 02:07:17;;;;;;;59.50;38.97;;;9.10;99.90;;;;;;5085783;28;20221;-64
2024/03/02 02:09:42;;;;;;;51.53;36.10;;;9.20;99.90;;;;;;5084300;28;20215;-63
2024/03/02 02:12:10;;;;;;;57.83;37.97;;;9.10;99.90;;;;;;5085694;28;20165;-64
2024/03/02 02:14:36;;;;;;;53.13;36.33;;;9.10;99.90;;;;;;5080701;28;20214;-64
2024/03/02 02:17:01;;;;;;;58.60;40.27;;;9.20;99.90;;;;;;5054896;28;20409;-64
2024/03/02 02:19:27;;;;;;;57.23;37.50;;;9.20;99.90;;;;;;5052501;28;20453;-64
2024/03/02 02:21:52;;;;;;;56.63;35.90;;;9.20;99.90;;;;;;5052331;28;20239;-64
2024/03/02 02:24:18;;;;;;;51.10;33.47;;;9.20;99.90;;;;;;5056202;28;20189;-65
2024/03/02 02:26:44;;;;;;;51.70;35.80;;;9.20;99.90;;;;;;5063857;28;20179;-66
2024/03/02 02:29:09;;;;;;;52.03;34.80;;;9.10;99.90;;;;;;5051939;28;20189;-64
2024/03/02 02:31:39;;;;;;;55.63;38.17;;;9.10;99.90;;;;;;5051956;28;20190;-64
2024/03/02 02:34:05;;;;;;;52.23;36.67;;;9.20;99.90;;;;;;5061311;28;20195;-64
2024/03/02 02:36:34;;;;;;;57.30;36.07;;;9.10;99.90;;;;;;5060372;28;20414;-64
2024/03/02 02:39:06;;;;;;;60.47;37.07;;;9.10;99.90;;;;;;5059524;28;20416;-63
2024/03/02 02:41:32;;;;;;;55.77;36.10;;;9.10;99.90;;;;;;5058649;28;20452;-64
2024/03/02 02:43:59;;;;;;;53.77;38.07;;;9.10;99.90;;;;;;5060408;28;20429;-64
2024/03/02 02:46:25;;;;;;;55.33;38.20;;;9.10;99.90;;;;;;5055800;28;20242;-62
2024/03/02 02:48:53;;;;;;;54.70;35.80;;;9.20;99.90;;;;;;5058006;28;21044;-63
2024/03/02 02:51:18;;;;;;;51.60;36.47;;;9.10;99.90;;;;;;5049784;28;20171;-64
2024/03/02 02:53:44;;;;;;;54.77;37.27;;;9.10;99.90;;;;;;5056346;28;20514;-64
2024/03/02 02:56:10;;;;;;;56.67;39.93;;;9.10;99.90;;;;;;5061963;28;20624;-62
2024/03/02 02:58:36;;;;;;;60.97;40.13;;;9.20;99.90;;;;;;5061988;28;20519;-64
2024/03/02 03:01:02;;;;;;;57.63;39.27;;;9.20;99.90;;;;;;5064637;28;20462;-63
2024/03/02 03:03:27;;;;;;;58.50;36.37;;;9.10;99.90;;;;;;5063194;28;20182;-63
2024/03/02 03:05:53;;;;;;;60.20;37.70;;;9.20;99.90;;;;;;5060191;28;20452;-64
2024/03/02 03:08:18;;;;;;;58.17;36.07;;;9.20;99.90;;;;;;5065075;28;20193;-63
2024/03/02 03:10:44;;;;;;;59.60;37.57;;;9.20;99.90;;;;;;5053484;28;20178;-63
2024/03/02 03:13:10;;;;;;;55.20;37.40;;;9.20;99.90;;;;;;5057144;28;20547;-63
2024/03/02 03:15:39;;;;;;;62.63;38.07;;;9.20;99.90;;;;;;5054540;28;20895;-62
2024/03/02 03:18:05;;;;;;;59.00;35.97;;;9.30;99.90;;;;;;5062115;28;20247;-62
2024/03/02 03:20:31;;;;;;;59.03;36.53;;;9.20;99.90;;;;;;5054616;28;20433;-63
2024/03/02 03:22:57;;;;;;;58.60;36.50;;;9.20;99.90;;;;;;5056695;28;20424;-63
2024/03/02 03:25:23;;;;;;;57.03;37.17;;;9.20;99.90;;;;;;5056949;28;20925;-62
2024/03/02 03:27:49;;;;;;;52.70;35.67;;;9.20;99.90;;;;;;5054076;28;20425;-62
2024/03/02 03:30:15;;;;;;;44.60;32.87;;;9.20;99.90;;;;;;5054484;28;20207;-63
2024/03/02 03:32:40;;;;;;;55.80;34.00;;;9.20;99.90;;;;;;5056679;28;20534;-61
2024/03/02 03:35:06;;;;;;;55.40;35.13;;;9.20;99.90;;;;;;5053934;28;20457;-62
2024/03/02 03:37:32;;;;;;;47.57;33.87;;;9.20;99.90;;;;;;5054031;28;20584;-62
2024/03/02 03:40:02;;;;;;;51.50;34.17;;;9.20;99.90;;;;;;5053928;28;20479;-62
2024/03/02 03:42:28;;;;;;;58.23;33.77;;;9.20;99.90;;;;;;5061529;28;20423;-64
2024/03/02 03:44:54;;;;;;;52.27;33.83;;;9.20;99.90;;;;;;5062777;28;20489;-64
2024/03/02 03:47:20;;;;;;;55.90;35.63;;;9.20;99.90;;;;;;5063282;28;20200;-64
2024/03/02 03:49:45;;;;;;;46.70;33.57;;;9.30;99.90;;;;;;5066002;28;20182;-63
2024/03/02 03:52:11;;;;;;;52.00;32.70;;;9.30;99.90;;;;;;5065830;28;20783;-63
2024/03/02 03:54:38;;;;;;;53.47;36.17;;;9.30;99.90;;;;;;5067036;28;20202;-63
2024/03/02 03:57:04;;;;;;;48.73;32.30;;;9.30;99.90;;;;;;5056919;28;20174;-64
2024/03/02 03:59:30;;;;;;;53.27;34.03;;;9.30;99.90;;;;;;5060830;28;20420;-64
2024/03/02 04:01:55;;;;;;;53.13;34.10;;;9.30;99.90;;;;;;5058315;28;20909;-63
2024/03/02 04:04:21;;;;;;;52.57;34.53;;;9.40;99.90;;;;;;5057569;28;20329;-63
2024/03/02 04:06:47;;;;;;;63.80;34.90;;;9.40;99.90;;;;;;5061661;28;20178;-64
2024/03/02 04:09:13;;;;;;;51.17;33.20;;;9.40;99.90;;;;;;5058025;28;20952;-62
2024/03/02 04:11:38;;;;;;;50.90;31.73;;;9.40;99.90;;;;;;5061367;28;20269;-65
2024/03/02 04:14:06;;;;;;;48.73;33.27;;;9.40;99.90;;;;;;5069646;28;20198;-63
2024/03/02 04:16:31;;;;;;;47.37;33.30;;;9.40;99.90;;;;;;5066979;28;20189;-65
2024/03/02 04:18:57;;;;;;;43.57;30.00;;;9.40;99.90;;;;;;5068754;28;20864;-61
2024/03/02 04:21:22;;;;;;;46.87;32.93;;;9.40;99.90;;;;;;5059907;28;20190;-63
2024/03/02 04:23:48;;;;;;;48.30;31.37;;;9.40;99.90;;;;;;5057984;28;20189;-63
2024/03/02 04:26:14;;;;;;;51.80;34.87;;;9.40;99.90;;;;;;5057525;28;20285;-62
2024/03/02 04:28:40;;;;;;;46.23;29.70;;;9.30;99.90;;;;;;5058128;28;20191;-63
2024/03/02 04:31:05;;;;;;;47.30;32.47;;;9.30;99.90;;;;;;5061137;28;20485;-62
2024/03/02 04:33:31;;;;;;;46.93;33.57;;;9.40;99.90;;;;;;5067001;28;20249;-65
2024/03/02 04:35:57;;;;;;;50.03;33.03;;;9.40;99.90;;;;;;5069563;28;20718;-63
2024/03/02 04:38:23;;;;;;;50.80;34.37;;;9.40;99.90;;;;;;5068062;28;20672;-63
2024/03/02 04:40:48;;;;;;;37.43;28.10;;;9.30;99.90;;;;;;5058870;28;20464;-63
2024/03/02 04:43:16;;;;;;;45.70;32.53;;;9.40;99.90;;;;;;5058899;28;20171;-63
2024/03/02 04:45:43;;;;;;;47.80;30.77;;;9.40;99.90;;;;;;5057084;28;20222;-63
2024/03/02 04:48:08;;;;;;;48.43;32.37;;;9.40;99.90;;;;;;5069355;28;20815;-63
2024/03/02 04:50:34;;;;;;;46.53;32.10;;;9.40;99.90;;;;;;5066164;28;20500;-63
2024/03/02 04:52:59;;;;;;;43.83;28.90;;;9.40;99.90;;;;;;5068908;28;20511;-62
2024/03/02 04:55:52;;;;;;;37.17;28.80;;;9.40;99.90;;;;;;5067453;28;20206;-63
2024/03/02 04:58:10;;;;;;;46.10;29.03;;;9.40;99.90;;;;;;5057570;28;20633;-64
2024/03/02 05:00:36;;;;;;;51.00;31.00;;;9.40;99.90;;;;;;5055291;28;20428;-62
2024/03/02 05:03:02;;;;;;;40.60;28.77;;;9.40;99.90;;;;;;5061062;28;20703;-61
2024/03/02 05:05:28;;;;;;;46.37;32.30;;;9.40;99.90;;;;;;5057538;28;20249;-63
2024/03/02 05:07:54;;;;;;;41.03;27.20;;;9.40;99.90;;;;;;5060224;28;20541;-63
2024/03/02 05:10:20;;;;;;;43.90;30.60;;;9.40;99.90;;;;;;5057423;28;20194;-63
2024/03/02 05:15:13;;;;;;;51.67;30.60;;;9.40;99.90;;;;;;5060526;28;20266;-63
2024/03/02 05:17:45;;;;;;;47.63;30.20;;;9.40;99.90;;;;;;5055268;28;20209;-64
2024/03/02 05:20:11;;;;;;;43.50;30.13;;;9.40;99.90;;;;;;5062408;28;20420;-63
2024/03/02 05:22:37;;;;;;;43.87;30.17;;;9.50;99.90;;;;;;5066785;28;20496;-63
2024/03/02 05:25:06;;;;;;;39.93;30.10;;;9.40;99.90;;;;;;5058171;28;20566;-63
2024/03/02 05:27:35;;;;;;;42.27;30.23;;;9.40;99.90;;;;;;5069406;28;21204;-65
2024/03/02 05:30:01;;;;;;;45.00;31.33;;;9.50;99.90;;;;;;5058489;28;20571;-62
2024/03/02 05:32:27;;;;;;;47.67;31.87;;;9.50;99.90;;;;;;5059338;28;20462;-61
2024/03/02 05:34:53;;;;;;;46.57;32.53;;;9.40;99.90;;;;;;5053768;28;20472;-65
2024/03/02 05:37:18;;;;;;;47.10;30.30;;;9.40;99.90;;;;;;5061834;28;20528;-63
2024/03/02 05:39:44;;;;;;;45.07;29.23;;;9.40;99.90;;;;;;5051159;28;20201;-65
2024/03/02 05:42:10;;;;;;;46.00;31.90;;;9.40;99.90;;;;;;5065253;28;20201;-63
2024/03/02 05:44:38;;;;;;;49.60;33.40;;;9.40;99.90;;;;;;5054748;28;20211;-64
2024/03/02 05:47:04;;;;;;;39.27;28.20;;;9.30;99.90;;;;;;5063214;28;20609;-64
2024/03/02 05:49:30;;;;;;;47.47;31.17;;;9.30;99.90;;;;;;5057001;28;21061;-63
2024/03/02 05:51:55;;;;;;;46.67;32.70;;;9.30;99.90;;;;;;5064157;28;20420;-63
2024/03/02 05:54:21;;;;;;;56.47;32.77;;;9.20;99.90;;;;;;5052977;28;20210;-63
2024/03/02 05:56:47;;;;;;;46.83;33.17;;;9.30;99.90;;;;;;5053683;28;20187;-63
2024/03/02 05:59:12;;;;;;;46.17;32.20;;;9.30;99.90;;;;;;5055258;28;20424;-64
2024/03/02 06:01:50;;;;;;;48.00;33.33;;;9.20;99.90;;;;;;5057938;28;20178;-64
2024/03/02 06:04:16;;;;;;;48.27;31.60;;;9.20;99.90;;;;;;5057394;28;20191;-63
2024/03/02 06:06:41;;;;;;;47.03;34.23;;;9.10;99.90;;;;;;5060186;28;20992;-63
2024/03/02 06:09:12;;;;;;;63.27;36.30;;;9.10;99.90;;;;;;5054435;28;20266;-64
2024/03/02 06:11:39;;;;;;;61.73;37.83;;;9.10;99.90;;;;;;5054232;28;20241;-64
2024/03/02 06:14:08;;;;;;;57.27;35.97;;;9.10;99.90;;;;;;5053904;28;20492;-64
2024/03/02 06:16:34;;;;;;;53.40;36.30;;;9.00;99.90;;;;;;5053946;28;20520;-64
2024/03/02 06:19:01;;;;;;;53.23;36.07;;;9.10;99.90;;;;;;5061360;28;20425;-64
2024/03/02 06:21:27;;;;;;;50.60;33.57;;;9.10;99.90;;;;;;5060952;28;20436;-64
2024/03/02 06:23:53;;;;;;;52.90;35.20;;;9.10;99.90;;;;;;5053156;28;20795;-64
2024/03/02 06:26:19;;;;;;;59.93;36.80;;;9.10;99.90;;;;;;5053052;28;20950;-66
2024/03/02 06:28:45;;;;;;;59.60;38.80;;;9.10;99.90;;;;;;5052973;28;20460;-65
2024/03/02 06:31:11;;;;;;;53.93;36.30;;;9.20;99.90;;;;;;5054502;28;20428;-64
2024/03/02 06:33:37;;;;;;;58.37;37.00;;;9.10;99.90;;;;;;5057110;28;20469;-66
2024/03/02 06:36:03;;;;;;;55.67;36.80;;;9.10;99.90;;;;;;5056192;28;20230;-64
2024/03/02 06:38:29;;;;;;;64.97;38.47;;;9.10;99.90;;;;;;5056929;28;20483;-66
2024/03/02 06:40:58;;;;;;;52.83;36.23;;;9.10;99.90;;;;;;5059502;28;20424;-64
2024/03/02 06:43:23;;;;;;;56.67;35.77;;;9.10;99.90;;;;;;5053281;28;20568;-64
2024/03/02 06:45:52;;;;;;;55.80;34.17;;;9.10;99.90;;;;;;5053783;28;20548;-64
2024/03/02 06:48:20;;;;;;;57.43;35.87;;;9.10;99.90;;;;;;5060581;28;20549;-64
2024/03/02 06:50:49;;;;;;;61.30;34.43;;;9.10;99.90;;;;;;5061056;28;20421;-65
2024/03/02 06:53:19;;;;;;;51.47;32.40;;;9.20;99.90;;;;;;5062729;28;20924;-64
2024/03/02 06:55:45;;;;;;;58.53;34.07;;;9.30;99.90;;;;;;5060953;28;20770;-64
2024/03/02 06:58:12;;;;;;;53.73;35.30;;;9.30;99.90;;;;;;5052732;28;20793;-63
2024/03/02 07:00:37;;;;;;;57.03;36.50;;;9.40;99.90;;;;;;5054519;28;20428;-63
2024/03/02 07:03:03;;;;;;;56.40;35.93;;;9.40;99.90;;;;;;5053223;28;20934;-60
2024/03/02 07:05:28;;;;;;;52.53;34.50;;;9.40;99.90;;;;;;5055537;28;20210;-64
2024/03/02 07:07:54;;;;;;;50.47;33.83;;;9.40;99.90;;;;;;5055377;28;20202;-63
2024/03/02 07:10:20;;;;;;;49.90;35.07;;;9.50;99.90;;;;;;5055168;28;20190;-64
2024/03/02 07:12:45;;;;;;;54.40;34.60;;;9.40;99.90;;;;;;5058096;28;20679;-64
2024/03/02 07:15:21;;;;;;;54.97;34.30;;;9.40;99.90;;;;;;5057046;28;20574;-64
2024/03/02 07:17:47;;;;;;;54.83;33.80;;;9.50;99.90;;;;;;5054980;28;20193;-64
2024/03/02 07:20:12;;;;;;;52.17;32.97;;;9.50;99.90;;;;;;5061376;28;20910;-63
2024/03/02 07:22:39;;;;;;;51.07;34.43;;;9.50;99.90;;;;;;5061186;28;20276;-64
2024/03/02 07:25:07;;;;;;;57.20;34.80;;;9.40;99.90;;;;;;5057646;28;20248;-64
2024/03/02 07:27:33;;;;;;;48.63;32.53;;;9.40;99.90;;;;;;5051462;28;20678;-63
2024/03/02 07:29:59;;;;;;;54.30;33.43;;;9.40;99.90;;;;;;5052678;28;20434;-63
2024/03/02 07:32:24;;;;;;;50.20;33.77;;;9.40;99.90;;;;;;5054688;28;20506;-62
2024/03/02 07:34:50;;;;;;;50.50;35.80;;;9.60;99.90;;;;;;5052375;28;20214;-63
2024/03/02 07:37:17;;;;;;;58.73;34.70;;;9.70;99.90;;;;;;5062870;28;20186;-64
2024/03/02 07:39:44;;;;;;;51.60;34.93;;;9.70;99.90;;;;;;5064784;28;20927;-64
2024/03/02 07:42:10;;;;;;;52.57;34.53;;;9.70;99.90;;;;;;5059500;28;20421;-63
2024/03/02 07:44:35;;;;;;;46.97;34.00;;;9.70;99.90;;;;;;5055029;28;20552;-64
2024/03/02 07:47:01;;;;;;;49.97;33.67;;;9.70;99.90;;;;;;5052780;28;20635;-63
2024/03/02 07:49:27;;;;;;;44.47;31.70;;;9.60;99.90;;;;;;5055336;28;20225;-64
2024/03/02 07:51:52;;;;;;;53.23;31.73;;;9.70;99.90;;;;;;5061174;28;20193;-66
2024/03/02 07:54:18;;;;;;;50.40;31.40;;;9.70;99.90;;;;;;5057698;28;20207;-66
2024/03/02 07:56:44;;;;;;;53.90;34.30;;;9.70;99.90;;;;;;5058245;28;20194;-65
2024/03/02 07:59:10;;;;;;;57.07;33.80;;;9.70;99.90;;;;;;5061855;28;20193;-64
2024/03/02 08:01:35;;;;;;;52.40;34.10;;;9.60;99.90;;;;;;5054394;28;20502;-63
2024/03/02 08:04:03;;;;;;;51.70;34.60;;;9.60;99.90;;;;;;5054333;28;20183;-64
2024/03/02 08:06:30;;;;;;;51.13;32.70;;;9.60;99.90;;;;;;5052289;28;20272;-64
2024/03/02 08:08:59;;;;;;;52.53;33.77;;;9.70;99.90;;;;;;5061077;28;20429;-64
2024/03/02 08:11:27;;;;;;;49.27;32.27;;;9.70;99.90;;;;;;5063970;28;20416;-64
2024/03/02 08:13:54;;;;;;;49.40;31.93;;;9.70;99.90;;;;;;5059497;28;20461;-65
2024/03/02 08:16:21;;;;;;;52.10;32.13;;;9.80;99.90;;;;;;5058630;28;20540;-64
2024/03/02 08:18:48;;;;;;;60.20;34.77;;;9.90;99.90;;;;;;5056672;28;20520;-64
2024/03/02 08:21:13;;;;;;;47.90;31.13;;;10.00;99.90;;;;;;5053641;28;20452;-65
2024/03/02 08:23:40;;;;;;;54.87;34.87;;;10.10;99.90;;;;;;5052336;28;20428;-64
2024/03/02 08:26:06;;;;;;;48.60;33.50;;;10.10;99.90;;;;;;5052495;28;20241;-65
2024/03/02 08:28:32;;;;;;;46.90;31.73;;;10.00;99.90;;;;;;5052517;28;20440;-63
2024/03/02 08:30:58;;;;;;;47.33;32.47;;;10.10;99.90;;;;;;5056638;28;20531;-64
2024/03/02 08:33:24;;;;;;;42.43;31.37;;;9.90;99.90;;;;;;5063625;28;20516;-62
2024/03/02 08:35:50;;;;;;;54.97;33.87;;;9.90;99.90;;;;;;5064409;28;20205;-64
2024/03/02 08:38:15;;;;;;;45.70;30.97;;;9.90;99.90;;;;;;5064991;28;20174;-64
2024/03/02 08:40:41;;;;;;;49.30;29.60;;;9.90;99.90;;;;;;5057782;28;20262;-63
2024/03/02 08:43:07;;;;;;;44.77;30.87;;;9.80;99.90;;;;;;5056906;28;20182;-64
2024/03/02 08:45:34;;;;;;;49.57;29.30;;;9.90;99.90;;;;;;5058776;28;20209;-63
2024/03/02 08:48:00;;;;;;;50.40;33.43;;;10.00;99.90;;;;;;5064826;28;20182;-64
2024/03/02 08:50:25;;;;;;;46.57;32.67;;;10.10;99.90;;;;;;5060029;28;20429;-64
2024/03/02 08:52:51;;;;;;;48.53;32.10;;;10.10;99.90;;;;;;5062655;28;20179;-65
2024/03/02 08:55:17;;;;;;;82.73;53.13;;;10.10;99.90;;;;;;5067155;28;20206;-64
2024/03/02 08:57:42;;;;;;;42.33;29.57;;;10.10;99.90;;;;;;5057230;28;20174;-62
2024/03/02 09:00:08;;;;;;;54.60;31.37;;;10.10;99.90;;;;;;5056423;28;20174;-65
2024/03/02 09:02:35;;;;;;;54.17;31.50;;;10.10;99.90;;;;;;5067950;28;20183;-64
2024/03/02 09:05:01;;;;;;;37.70;27.07;;;10.00;99.90;;;;;;5060344;28;20935;-62
2024/03/02 09:07:26;;;;;;;44.47;29.93;;;10.00;99.90;;;;;;5067748;28;20428;-63
2024/03/02 09:09:52;;;;;;;40.73;26.97;;;10.00;99.90;;;;;;5066841;28;20495;-62
2024/03/02 09:12:18;;;;;;;47.37;29.60;;;10.10;99.90;;;;;;5067839;28;20189;-63
2024/03/02 09:14:44;;;;;;;37.37;28.40;;;10.00;99.90;;;;;;5065271;28;20218;-62
2024/03/02 09:17:11;;;;;;;39.23;27.10;;;10.00;99.90;;;;;;5057163;28;20483;-63
2024/03/02 09:19:37;;;;;;;44.47;28.77;;;10.10;99.90;;;;;;5059735;28;20813;-62
2024/03/02 09:22:05;;;;;;;39.17;27.07;;;9.90;99.90;;;;;;5055811;28;20424;-64
2024/03/02 09:24:31;;;;;;;42.03;26.90;;;10.10;99.90;;;;;;5055577;28;20260;-62
2024/03/02 09:26:57;;;;;;;45.17;28.53;;;10.10;99.90;;;;;;5056070;28;20519;-63
2024/03/02 09:29:22;;;;;;;41.33;29.20;;;10.10;99.90;;;;;;5057210;28;20464;-64
2024/03/02 09:31:49;;;;;;;44.23;29.83;;;10.10;99.90;;;;;;5058330;28;20225;-64
2024/03/02 09:34:15;;;;;;;44.03;31.20;;;10.10;99.90;;;;;;5061653;28;20522;-66
2024/03/02 09:36:41;;;;;;;47.23;30.00;;;10.20;99.90;;;;;;5055674;28;20461;-68
2024/03/02 09:39:10;;;;;;;51.07;29.80;;;10.10;99.90;;;;;;5061610;28;20465;-64
2024/03/02 09:41:37;;;;;;;44.40;31.00;;;10.20;99.90;;;;;;5059507;28;20189;-67
2024/03/02 09:44:03;;;;;;;45.87;28.80;;;10.30;99.90;;;;;;5067499;28;20428;-65
2024/03/02 09:46:28;;;;;;;47.20;28.30;;;10.70;99.90;;;;;;5067887;28;20452;-71
2024/03/02 09:48:54;;;;;;;48.50;29.17;;;10.80;99.90;;;;;;5066002;28;20465;-64
2024/03/02 09:51:20;;;;;;;44.30;30.10;;;10.90;99.90;;;;;;5052898;28;20293;-64
2024/03/02 09:53:47;;;;;;;46.07;28.40;;;11.00;99.90;;;;;;5063824;28;20206;-67
2024/03/02 09:56:13;;;;;;;37.03;26.03;;;11.10;99.90;;;;;;5055965;28;20285;-63
2024/03/02 09:58:39;;;;;;;38.33;29.60;;;11.10;99.90;;;;;;5063637;28;20915;-64
2024/03/02 10:01:09;;;;;;;40.33;26.47;;;11.30;99.90;;;;;;5059143;28;20413;-64
2024/03/02 10:03:36;;;;;;;36.10;25.73;;;11.30;99.90;;;;;;5062644;28;20437;-64
2024/03/02 10:06:25;;;;;;;39.60;24.93;;;11.70;99.90;;;;;;5065086;28;20444;-64
2024/03/02 10:08:51;;;;;;;37.47;24.63;;;11.60;99.90;;;;;;5062068;28;20911;-64
2024/03/02 10:11:30;;;;;;;33.73;25.93;;;11.50;99.90;;;;;;5067966;28;20424;-65
2024/03/02 10:14:07;;;;;;;35.80;24.40;;;11.70;99.90;;;;;;5059761;28;20457;-64
2024/03/02 10:16:36;;;;;;;40.13;22.63;;;11.80;99.90;;;;;;5055331;28;20494;-63
2024/03/02 10:19:19;;;;;;;27.43;22.00;;;12.20;99.90;;;;;;5055491;28;20571;-63
2024/03/02 10:21:52;;;;;;;34.53;22.93;;;12.20;99.90;;;;;;5055195;28;20500;-63
2024/03/02 10:24:19;;;;;;;29.30;22.20;;;12.60;99.90;;;;;;5054627;28;20429;-63
2024/03/02 10:26:45;;;;;;;27.77;21.13;;;12.50;99.90;;;;;;5056867;28;20460;-63
2024/03/02 10:29:11;;;;;;;27.23;20.17;;;12.50;99.90;;;;;;5063233;28;20456;-63
2024/03/02 10:31:45;;;;;;;32.30;21.53;;;12.20;99.90;;;;;;5066545;28;20895;-64
2024/03/02 10:34:13;;;;;;;35.13;22.83;;;12.20;99.90;;;;;;5061527;28;20504;-63
2024/03/02 10:36:43;;;;;;;39.67;25.77;;;12.50;99.90;;;;;;5063077;28;20445;-63
2024/03/02 10:39:09;;;;;;;30.90;23.00;;;12.60;99.90;;;;;;5055805;28;20482;-63
2024/03/02 10:41:37;;;;;;;32.73;23.93;;;12.40;99.90;;;;;;5056276;28;20422;-63
2024/03/02 10:44:07;;;;;;;30.03;22.73;;;12.50;99.90;;;;;;5062654;28;20190;-63
2024/03/02 10:46:35;;;;;;;27.07;20.57;;;12.70;99.90;;;;;;5059718;28;20821;-64
2024/03/02 10:49:03;;;;;;;30.57;22.00;;;12.60;99.90;;;;;;5053953;28;20473;-63
2024/03/02 10:51:36;;;;;;;28.03;20.20;;;12.80;99.90;;;;;;5054547;28;20951;-64
2024/03/02 10:54:03;;;;;;;27.63;19.20;;;12.60;99.90;;;;;;5054840;28;20479;-64
2024/03/02 10:56:41;;;;;;;26.07;20.43;;;12.80;99.90;;;;;;5055060;28;20810;-63
2024/03/02 10:59:26;;;;;;;25.27;18.90;;;12.60;99.90;;;;;;5059173;28;20421;-63
2024/03/02 11:01:57;;;;;;;22.33;17.97;;;12.50;99.90;;;;;;5055893;28;20425;-63
2024/03/02 11:04:25;;;;;;;26.73;21.03;;;12.50;99.90;;;;;;5055407;28;20460;-64
2024/03/02 11:06:51;;;;;;;24.23;17.37;;;12.50;99.90;;;;;;5056648;28;21129;-64
2024/03/02 11:09:25;;;;;;;29.50;20.10;;;12.60;99.90;;;;;;5065199;28;20433;-63
2024/03/02 11:12:01;;;;;;;27.13;18.30;;;12.50;99.90;;;;;;5057130;28;20416;-63
2024/03/02 11:14:35;;;;;;;25.77;18.13;;;12.40;99.90;;;;;;5059276;28;20516;-63
2024/03/02 11:17:03;;;;;;;26.20;17.40;;;12.40;99.90;;;;;;5054435;28;20429;-63
2024/03/02 11:19:29;;;;;;;24.20;18.43;;;12.70;99.90;;;;;;5053553;28;20891;-66
2024/03/02 11:21:55;;;;;;;24.33;17.83;;;12.70;99.90;;;;;;5062090;28;20899;-65
2024/03/02 11:24:21;;;;;;;23.80;16.87;;;12.70;99.90;;;;;;5060631;28;20465;-70
2024/03/02 11:26:47;;;;;;;24.17;17.60;;;12.70;99.90;;;;;;5063193;28;20513;-66
2024/03/02 11:29:41;;;;;;;21.77;16.33;;;12.70;99.90;;;;;;5065031;28;20882;-64
2024/03/02 11:32:15;;;;;;;32.07;20.83;;;12.70;99.90;;;;;;5058931;28;20186;-65
2024/03/02 11:34:51;;;;;;;25.70;18.77;;;12.60;99.90;;;;;;5057563;28;20460;-64
2024/03/02 11:37:22;;;;;;;23.40;15.50;;;13.20;99.90;;;;;;5065829;28;20488;-66
2024/03/02 11:39:50;;;;;;;22.70;14.97;;;13.50;99.90;;;;;;5063284;28;20923;-65
2024/03/02 11:42:16;;;;;;;25.50;15.97;;;13.70;99.90;;;;;;5054763;28;20432;-65
2024/03/02 11:44:45;;;;;;;23.73;17.97;;;13.70;99.90;;;;;;5054200;28;20787;-65
2024/03/02 11:47:14;;;;;;;23.00;17.57;;;13.30;99.90;;;;;;5055688;28;20436;-65
2024/03/02 11:49:41;;;;;;;22.30;17.57;;;13.60;99.90;;;;;;5057922;28;20424;-65
2024/03/02 11:52:09;;;;;;;24.07;17.70;;;13.80;99.90;;;;;;5056187;28;20532;-64
2024/03/02 11:54:46;;;;;;;26.20;17.73;;;13.60;99.90;;;;;;5065889;28;20483;-64
2024/03/02 11:57:12;;;;;;;22.27;16.93;;;13.80;99.90;;;;;;5061018;28;20414;-64
2024/03/02 11:59:38;;;;;;;25.13;16.07;;;13.60;99.90;;;;;;5062322;28;20448;-64
2024/03/02 12:02:03;;;;;;;21.00;17.20;;;13.80;99.90;;;;;;5052752;28;20461;-65
2024/03/02 12:04:30;;;;;;;23.53;17.00;;;13.50;99.90;;;;;;5052289;28;20628;-64
2024/03/02 12:06:59;;;;;;;25.50;16.87;;;13.80;99.90;;;;;;5064650;28;20199;-64
2024/03/02 12:09:26;;;;;;;20.37;16.83;;;13.90;99.90;;;;;;5057823;28;20431;-64
2024/03/02 12:12:09;;;;;;;22.70;15.37;;;14.00;99.90;;;;;;5057097;28;20427;-64
2024/03/02 12:14:37;;;;;;;21.17;14.53;;;14.00;99.90;;;;;;5055045;28;20471;-64
2024/03/02 12:17:03;;;;;;;23.33;16.17;;;14.10;99.90;;;;;;5058401;28;20422;-64
2024/03/02 12:19:30;;;;;;;21.00;15.53;;;13.90;99.90;;;;;;5062502;28;20429;-65
2024/03/02 12:21:59;;;;;;;19.13;16.23;;;13.50;99.90;;;;;;5060079;28;20919;-64
2024/03/02 12:24:27;;;;;;;23.37;14.57;;;14.00;99.90;;;;;;5056425;28;20429;-64
2024/03/02 12:26:53;;;;;;;22.83;16.07;;;14.30;99.90;;;;;;5055957;28;20488;-64
2024/03/02 12:29:20;;;;;;;23.97;14.60;;;14.10;99.90;;;;;;5066500;28;20491;-64
2024/03/02 12:31:52;;;;;;;19.43;15.73;;;14.30;99.90;;;;;;5058975;28;20429;-64
2024/03/02 12:34:18;;;;;;;25.03;17.70;;;14.50;99.90;;;;;;5055928;28;20488;-64
2024/03/02 12:36:49;;;;;;;22.23;15.97;;;14.50;99.90;;;;;;5058405;28;20479;-64